Time;durP1;ratioP1;P1;durP2;ratioP2;P2;SDS_P1;SDS_P2;PMS_P1;PMS_P2;Temp;Humidity;BMP_temperature;BMP_pressure;BME280_temperature;BME280_humidity;BME280_pressure;Samples;Min_cycle;Max_cycle;Signal;HPM_P1;HPM_P2
2021/03/23 00:00:50;;;;;;;11.57;6.30;;;4.50;58.80;;;;;;5096302;27;20200;-75
2021/03/23 00:03:25;;;;;;;14.52;6.90;;;4.40;58.80;;;;;;5106177;27;20222;-74
2021/03/23 00:05:51;;;;;;;14.52;8.80;;;4.40;58.70;;;;;;5101547;27;23808;-75
2021/03/23 00:08:29;;;;;;;17.85;7.63;;;4.40;58.90;;;;;;5111588;27;20194;-75
2021/03/23 00:11:06;;;;;;;9.10;7.03;;;4.40;59.20;;;;;;5102911;27;20195;-74
2021/03/23 00:13:33;;;;;;;19.23;8.35;;;4.40;59.10;;;;;;5099532;27;20199;-75
2021/03/23 00:16:08;;;;;;;12.18;6.57;;;4.40;59.00;;;;;;5106407;27;20594;-74
2021/03/23 00:18:36;;;;;;;12.00;6.18;;;4.30;59.20;;;;;;5099514;27;20209;-75
2021/03/23 00:21:03;;;;;;;16.25;6.20;;;4.30;59.30;;;;;;5106601;27;20226;-74
2021/03/23 00:23:31;;;;;;;9.45;6.15;;;4.20;59.70;;;;;;5103509;27;20187;-75
2021/03/23 00:26:03;;;;;;;8.55;5.75;;;4.20;59.60;;;;;;5102662;27;20231;-74
2021/03/23 00:28:30;;;;;;;16.23;6.07;;;4.20;59.90;;;;;;5101490;27;20608;-75
2021/03/23 00:31:00;;;;;;;8.65;4.53;;;4.10;60.10;;;;;;5102849;27;23241;-74
2021/03/23 00:33:27;;;;;;;10.70;6.20;;;4.20;60.60;;;;;;5104330;27;20203;-75
2021/03/23 00:35:58;;;;;;;6.82;4.93;;;4.20;61.00;;;;;;5100997;27;21611;-74
2021/03/23 00:38:26;;;;;;;8.23;4.15;;;4.20;60.70;;;;;;5108778;27;20198;-75
2021/03/23 00:40:54;;;;;;;7.90;4.93;;;4.20;61.10;;;;;;5097492;27;20287;-74
2021/03/23 00:43:24;;;;;;;6.10;4.53;;;4.10;61.30;;;;;;5109940;27;20208;-74
2021/03/23 00:45:51;;;;;;;7.85;5.10;;;4.20;61.30;;;;;;5101486;27;20236;-74
2021/03/23 00:48:21;;;;;;;6.25;3.88;;;4.20;61.30;;;;;;5103701;27;20206;-74
2021/03/23 00:50:48;;;;;;;8.20;3.63;;;4.10;61.10;;;;;;5099511;27;20378;-74
2021/03/23 00:53:15;;;;;;;10.95;5.35;;;4.20;61.30;;;;;;5109481;27;20191;-74
2021/03/23 00:55:42;;;;;;;8.63;4.85;;;4.20;61.10;;;;;;5090564;27;20204;-74
2021/03/23 00:58:13;;;;;;;9.10;4.93;;;4.20;61.10;;;;;;5110126;27;20221;-74
2021/03/23 01:00:40;;;;;;;10.77;4.40;;;4.20;61.20;;;;;;5093747;27;20210;-75
2021/03/23 01:03:08;;;;;;;11.20;5.10;;;4.20;61.10;;;;;;5107355;27;20244;-74
2021/03/23 01:05:36;;;;;;;8.27;4.57;;;4.10;61.20;;;;;;5097399;27;20621;-75
2021/03/23 01:08:04;;;;;;;6.55;4.13;;;4.10;61.40;;;;;;5103617;27;20199;-75
2021/03/23 01:10:34;;;;;;;7.95;3.92;;;4.20;61.20;;;;;;5097662;27;20287;-75
2021/03/23 01:13:06;;;;;;;12.15;5.28;;;4.20;61.00;;;;;;5103400;27;20206;-74
2021/03/23 01:15:34;;;;;;;7.53;4.72;;;4.20;61.10;;;;;;5097981;27;20253;-75
2021/03/23 01:18:06;;;;;;;15.88;4.78;;;4.10;60.90;;;;;;5115988;27;20285;-74
2021/03/23 01:20:34;;;;;;;10.18;5.30;;;4.10;61.30;;;;;;5125462;27;20184;-74
2021/03/23 01:23:01;;;;;;;11.27;5.07;;;4.10;61.30;;;;;;5135676;27;20192;-73
2021/03/23 01:25:35;;;;;;;10.80;4.03;;;4.10;61.10;;;;;;5135611;27;20215;-74
2021/03/23 01:28:10;;;;;;;6.63;4.75;;;4.10;61.40;;;;;;5135903;27;20191;-74
2021/03/23 01:30:43;;;;;;;5.95;4.57;;;4.10;61.50;;;;;;5135222;27;20183;-74
2021/03/23 01:33:14;;;;;;;8.13;5.18;;;4.10;61.50;;;;;;5135601;27;20259;-74
2021/03/23 01:35:41;;;;;;;10.80;5.07;;;4.10;61.00;;;;;;5135191;27;20192;-74
2021/03/23 01:38:08;;;;;;;9.55;5.65;;;4.10;61.30;;;;;;5134820;27;20179;-73
2021/03/23 01:40:37;;;;;;;7.57;3.97;;;4.10;61.50;;;;;;5135595;27;20255;-74
2021/03/23 01:43:21;;;;;;;14.15;6.15;;;4.10;61.50;;;;;;5135230;27;20259;-74
2021/03/23 01:45:50;;;;;;;9.05;5.47;;;4.20;61.60;;;;;;5135162;27;20242;-74
2021/03/23 01:48:20;;;;;;;9.38;4.15;;;4.20;61.20;;;;;;5135112;27;20271;-74
2021/03/23 01:50:52;;;;;;;14.25;5.50;;;4.20;61.40;;;;;;5135468;27;20183;-74
2021/03/23 01:53:35;;;;;;;9.63;4.38;;;4.20;61.40;;;;;;5135002;27;20226;-74
2021/03/23 01:56:03;;;;;;;10.40;4.88;;;4.10;61.60;;;;;;5135552;27;20218;-74
2021/03/23 01:58:38;;;;;;;7.93;4.88;;;4.10;61.80;;;;;;5134190;27;20188;-74
2021/03/23 02:01:08;;;;;;;9.07;4.45;;;4.10;61.90;;;;;;5135354;27;20195;-73
2021/03/23 02:03:47;;;;;;;9.20;4.90;;;4.10;62.00;;;;;;5134976;27;20192;-73
2021/03/23 02:06:33;;;;;;;9.23;4.80;;;4.10;62.00;;;;;;5134958;27;20258;-74
2021/03/23 02:09:06;;;;;;;8.18;4.78;;;4.10;62.00;;;;;;5134653;27;20192;-74
2021/03/23 02:11:40;;;;;;;7.53;4.85;;;4.10;62.10;;;;;;5134896;27;20187;-74
2021/03/23 02:14:14;;;;;;;11.48;5.82;;;4.10;62.10;;;;;;5134700;27;20191;-74
2021/03/23 02:16:44;;;;;;;13.30;5.53;;;4.10;62.10;;;;;;5135212;27;20199;-74
2021/03/23 02:19:12;;;;;;;8.85;4.93;;;4.10;61.90;;;;;;5134928;27;20186;-74
2021/03/23 02:21:40;;;;;;;9.85;5.22;;;4.10;62.00;;;;;;5135225;27;20231;-74
2021/03/23 02:24:15;;;;;;;8.05;5.25;;;4.10;62.20;;;;;;5134483;27;20221;-74
2021/03/23 02:26:47;;;;;;;10.02;5.72;;;4.10;62.30;;;;;;5134844;27;20711;-74
2021/03/23 02:29:17;;;;;;;9.93;5.00;;;4.10;62.60;;;;;;5134711;27;20192;-74
2021/03/23 02:31:47;;;;;;;8.57;4.75;;;4.10;62.40;;;;;;5134253;27;20562;-74
2021/03/23 02:34:26;;;;;;;7.55;4.18;;;4.10;62.50;;;;;;5134335;27;20194;-74
2021/03/23 02:36:54;;;;;;;11.05;5.30;;;4.10;62.30;;;;;;5134130;27;20229;-74
2021/03/23 02:39:28;;;;;;;7.20;3.75;;;4.10;62.40;;;;;;5134457;27;20191;-74
2021/03/23 02:42:02;;;;;;;7.10;4.88;;;4.00;62.30;;;;;;5134509;27;20191;-73
2021/03/23 02:44:42;;;;;;;6.50;3.85;;;4.00;62.60;;;;;;5134187;27;20187;-74
2021/03/23 02:47:17;;;;;;;8.50;4.97;;;4.00;62.90;;;;;;5134326;27;20557;-74
2021/03/23 02:49:59;;;;;;;8.63;4.30;;;3.90;63.20;;;;;;5134487;27;20311;-74
2021/03/23 02:52:31;;;;;;;16.20;5.60;;;3.80;63.50;;;;;;5134304;27;20192;-74
2021/03/23 02:54:59;;;;;;;7.57;4.05;;;3.80;63.90;;;;;;5134170;27;20198;-74
2021/03/23 02:57:29;;;;;;;9.75;4.10;;;3.80;64.50;;;;;;5133826;27;20675;-74
2021/03/23 03:00:02;;;;;;;8.90;3.83;;;3.70;64.50;;;;;;5134175;27;20307;-74
2021/03/23 03:02:42;;;;;;;10.55;4.45;;;3.70;64.60;;;;;;5133977;27;20215;-74
2021/03/23 03:05:11;;;;;;;9.40;4.20;;;3.70;65.10;;;;;;5133696;27;20187;-74
2021/03/23 03:07:39;;;;;;;10.57;4.40;;;3.70;65.20;;;;;;5134176;27;20638;-74
2021/03/23 03:10:09;;;;;;;9.93;5.55;;;3.70;65.40;;;;;;5133675;27;20602;-74
2021/03/23 03:12:40;;;;;;;9.10;4.53;;;3.70;65.50;;;;;;5132595;27;20187;-74
2021/03/23 03:15:12;;;;;;;14.10;5.50;;;3.70;65.60;;;;;;5134006;27;20650;-74
2021/03/23 03:17:41;;;;;;;13.88;5.03;;;3.70;65.40;;;;;;5133800;27;20574;-74
2021/03/23 03:23:01;;;;;;;7.50;4.30;;;3.70;65.40;;;;;;5133750;27;20190;-74
2021/03/23 03:25:30;;;;;;;14.38;5.28;;;3.70;65.50;;;;;;5133289;27;20190;-74
2021/03/23 03:27:57;;;;;;;13.63;6.32;;;3.70;65.20;;;;;;5133802;27;20234;-74
2021/03/23 03:30:36;;;;;;;9.75;4.93;;;3.70;65.00;;;;;;5133807;27;20582;-74
2021/03/23 03:33:04;;;;;;;7.70;4.82;;;3.70;64.90;;;;;;5133847;27;20544;-74
2021/03/23 03:35:35;;;;;;;11.30;6.07;;;3.70;64.90;;;;;;5133086;27;20215;-74
2021/03/23 03:38:04;;;;;;;13.45;6.43;;;3.70;65.00;;;;;;5132575;27;20564;-73
2021/03/23 03:40:36;;;;;;;9.75;6.20;;;3.70;64.90;;;;;;5133230;27;20188;-74
2021/03/23 03:43:04;;;;;;;11.63;4.75;;;3.70;64.70;;;;;;5133627;27;20180;-74
2021/03/23 03:45:36;;;;;;;11.10;4.50;;;3.60;64.20;;;;;;5133058;27;20227;-74
2021/03/23 03:48:08;;;;;;;10.05;5.65;;;3.60;64.00;;;;;;5133356;27;20215;-74
2021/03/23 03:50:50;;;;;;;9.88;5.45;;;3.50;64.80;;;;;;5133275;27;20198;-74
2021/03/23 03:53:23;;;;;;;9.98;5.15;;;3.40;65.10;;;;;;5133311;27;20231;-74
2021/03/23 03:55:56;;;;;;;8.15;4.28;;;3.40;65.40;;;;;;5133028;27;20195;-74
2021/03/23 03:58:23;;;;;;;8.02;4.45;;;3.30;65.70;;;;;;5133544;27;20191;-74
2021/03/23 04:00:55;;;;;;;8.10;4.60;;;3.30;66.10;;;;;;5133041;27;20222;-74
2021/03/23 04:03:25;;;;;;;8.25;4.80;;;3.30;66.70;;;;;;5133110;27;20629;-74
2021/03/23 04:05:54;;;;;;;8.13;4.90;;;3.30;66.50;;;;;;5133147;27;20222;-75
2021/03/23 04:08:25;;;;;;;8.98;4.13;;;3.30;65.70;;;;;;5136534;27;20279;-75
2021/03/23 04:10:53;;;;;;;17.40;5.90;;;3.30;65.60;;;;;;5137354;27;20248;-75
2021/03/23 04:13:25;;;;;;;7.97;5.03;;;3.20;65.30;;;;;;5136950;27;20188;-74
2021/03/23 04:15:53;;;;;;;8.05;4.78;;;3.20;65.70;;;;;;5137371;27;20187;-75
2021/03/23 04:18:22;;;;;;;10.13;5.03;;;3.20;66.10;;;;;;5137276;27;20202;-75
2021/03/23 04:20:59;;;;;;;7.63;4.30;;;3.20;66.30;;;;;;5137192;27;20210;-75
2021/03/23 04:23:31;;;;;;;8.68;5.07;;;3.20;66.20;;;;;;5137075;27;20187;-74
2021/03/23 04:26:10;;;;;;;11.38;5.18;;;3.20;67.10;;;;;;5137476;27;20218;-75
2021/03/23 04:28:38;;;;;;;13.70;6.60;;;3.10;66.40;;;;;;5136961;27;20187;-75
2021/03/23 04:31:06;;;;;;;9.00;5.47;;;3.10;66.70;;;;;;5136927;27;20230;-75
2021/03/23 04:33:33;;;;;;;13.15;8.30;;;3.10;66.80;;;;;;5136752;27;20180;-75
2021/03/23 04:36:07;;;;;;;14.02;8.23;;;3.10;66.90;;;;;;5137073;27;20183;-75
2021/03/23 04:38:38;;;;;;;15.25;7.95;;;3.10;67.10;;;;;;5136387;27;20190;-75
2021/03/23 04:41:09;;;;;;;9.02;6.07;;;3.10;67.20;;;;;;5136278;27;20183;-75
2021/03/23 04:43:38;;;;;;;12.80;5.57;;;3.00;67.20;;;;;;5136966;27;20202;-75
2021/03/23 04:46:10;;;;;;;9.75;6.10;;;3.00;67.30;;;;;;5136202;27;20224;-74
2021/03/23 04:48:41;;;;;;;11.73;6.65;;;3.00;67.20;;;;;;5136240;27;20192;-74
2021/03/23 04:51:11;;;;;;;13.55;5.72;;;2.90;67.00;;;;;;5136438;27;20660;-75
2021/03/23 04:53:49;;;;;;;9.82;5.18;;;2.90;67.30;;;;;;5136833;27;20240;-74
2021/03/23 04:56:25;;;;;;;11.60;6.90;;;2.80;67.10;;;;;;5136484;27;20211;-75
2021/03/23 04:58:57;;;;;;;16.17;7.15;;;2.80;67.20;;;;;;5136718;27;20653;-75
2021/03/23 05:01:25;;;;;;;10.13;5.65;;;2.80;67.50;;;;;;5135799;27;20186;-75
2021/03/23 05:03:56;;;;;;;8.73;5.05;;;2.70;67.20;;;;;;5136551;27;20199;-75
2021/03/23 05:06:24;;;;;;;11.48;5.00;;;2.70;67.40;;;;;;5136140;27;20219;-75
2021/03/23 05:08:58;;;;;;;8.75;5.30;;;2.60;67.40;;;;;;5136662;27;20199;-75
2021/03/23 05:11:31;;;;;;;10.48;6.68;;;2.60;67.70;;;;;;5136029;27;20192;-75
2021/03/23 05:13:59;;;;;;;10.55;5.95;;;2.60;67.70;;;;;;5136828;27;20245;-74
2021/03/23 05:16:27;;;;;;;10.05;5.80;;;2.50;68.10;;;;;;5135619;27;20645;-75
2021/03/23 05:18:55;;;;;;;8.65;5.57;;;2.50;68.10;;;;;;5135698;27;20282;-74
2021/03/23 05:21:34;;;;;;;8.15;4.97;;;2.50;68.20;;;;;;5135904;27;20222;-75
2021/03/23 05:24:06;;;;;;;7.68;4.65;;;2.50;69.40;;;;;;5136262;27;20196;-75
2021/03/23 05:26:34;;;;;;;10.50;4.78;;;2.50;68.30;;;;;;5134952;27;20275;-75
2021/03/23 05:29:06;;;;;;;11.55;5.93;;;2.50;68.50;;;;;;5136095;27;20241;-74
2021/03/23 05:31:34;;;;;;;9.18;5.13;;;2.40;68.60;;;;;;5135854;27;20192;-74
2021/03/23 05:34:00;;;;;;;10.20;5.53;;;2.50;69.00;;;;;;5136231;27;20237;-75
2021/03/23 05:36:34;;;;;;;9.27;5.78;;;2.40;69.10;;;;;;5134804;27;20279;-74
2021/03/23 05:39:12;;;;;;;13.02;6.18;;;2.40;69.10;;;;;;5135884;27;20571;-74
2021/03/23 05:41:46;;;;;;;11.02;5.60;;;2.40;69.60;;;;;;5120517;27;20226;-74
2021/03/23 05:44:46;;;;;;;15.63;6.47;;;2.40;70.00;;;;;;5135661;27;20256;-75
2021/03/23 05:47:14;;;;;;;12.68;6.93;;;2.50;70.30;;;;;;5135039;27;20219;-74
2021/03/23 05:49:49;;;;;;;7.38;6.32;;;2.50;70.30;;;;;;5135350;27;20330;-75
2021/03/23 05:52:25;;;;;;;11.25;7.65;;;2.60;70.70;;;;;;5135743;27;20729;-74
2021/03/23 05:55:02;;;;;;;13.98;7.00;;;2.70;70.40;;;;;;5134732;27;20641;-75
2021/03/23 05:57:35;;;;;;;13.95;8.30;;;2.70;70.30;;;;;;5135943;27;20274;-75
2021/03/23 06:00:06;;;;;;;9.98;8.05;;;2.70;70.20;;;;;;5135137;27;20192;-75
2021/03/23 06:02:44;;;;;;;9.82;6.78;;;2.70;70.70;;;;;;5135578;27;20191;-75
2021/03/23 06:05:29;;;;;;;10.63;7.43;;;2.70;70.30;;;;;;5134572;27;20186;-74
2021/03/23 06:08:00;;;;;;;8.30;6.25;;;2.70;70.70;;;;;;5135539;27;20211;-74
2021/03/23 06:10:28;;;;;;;18.83;7.70;;;2.80;70.10;;;;;;5135142;27;20223;-75
2021/03/23 06:13:21;;;;;;;21.10;10.15;;;2.90;69.60;;;;;;5135239;27;20261;-74
2021/03/23 06:16:15;;;;;;;12.52;8.00;;;2.80;69.90;;;;;;5129848;27;20196;-75
2021/03/23 06:18:59;;;;;;;13.80;7.85;;;3.00;70.30;;;;;;5130129;27;20199;-75
2021/03/23 06:21:34;;;;;;;13.25;8.25;;;3.10;70.70;;;;;;5114790;27;20207;-75
2021/03/23 06:24:15;;;;;;;16.52;6.90;;;3.20;70.70;;;;;;5113926;27;20267;-75
2021/03/23 06:26:50;;;;;;;14.35;8.70;;;3.30;70.80;;;;;;5116258;27;20249;-75
2021/03/23 06:29:35;;;;;;;16.20;9.40;;;3.50;70.50;;;;;;5113119;27;20246;-75
2021/03/23 06:32:26;;;;;;;17.77;8.10;;;3.60;69.90;;;;;;5114880;27;20196;-76
2021/03/23 06:34:55;;;;;;;13.88;7.50;;;3.70;69.70;;;;;;5121841;27;20303;-76
2021/03/23 06:37:29;;;;;;;14.73;8.90;;;3.90;70.00;;;;;;5132216;27;20196;-76
2021/03/23 06:39:56;;;;;;;14.90;7.85;;;4.10;70.40;;;;;;5121373;27;20199;-76
2021/03/23 06:42:36;;;;;;;15.60;7.10;;;4.20;69.90;;;;;;5113644;27;20203;-75
2021/03/23 06:45:26;;;;;;;14.30;8.27;;;4.40;69.30;;;;;;5117441;27;20216;-78
2021/03/23 06:47:57;;;;;;;12.80;8.00;;;4.50;69.00;;;;;;5131545;27;20257;-75
2021/03/23 06:50:41;;;;;;;16.95;8.45;;;4.80;68.50;;;;;;5122922;27;20188;-77
2021/03/23 06:53:12;;;;;;;13.40;8.75;;;5.00;67.20;;;;;;5131922;27;20188;-75
2021/03/23 06:55:40;;;;;;;14.13;7.63;;;5.20;67.50;;;;;;5115318;27;20237;-75
2021/03/23 06:58:24;;;;;;;13.43;7.22;;;5.40;66.40;;;;;;5113377;27;20274;-75
2021/03/23 07:01:12;;;;;;;17.52;8.57;;;5.70;63.70;;;;;;5129490;27;20199;-75
2021/03/23 07:03:40;;;;;;;17.73;9.40;;;6.10;63.80;;;;;;5121964;27;20687;-75
2021/03/23 07:06:22;;;;;;;12.43;7.45;;;6.50;61.60;;;;;;5123100;27;20222;-75
2021/03/23 07:09:08;;;;;;;13.50;6.80;;;6.90;60.70;;;;;;5128576;27;20195;-75
2021/03/23 07:11:50;;;;;;;12.40;7.72;;;7.40;58.50;;;;;;5117337;27;20194;-75
2021/03/23 07:14:35;;;;;;;12.95;7.53;;;8.10;58.10;;;;;;5112830;27;20245;-75
2021/03/23 07:17:22;;;;;;;12.20;8.15;;;8.70;57.10;;;;;;5123635;27;20279;-76
2021/03/23 07:19:54;;;;;;;10.73;7.35;;;9.40;56.70;;;;;;5128063;27;20228;-75
2021/03/23 07:22:38;;;;;;;11.13;6.40;;;10.60;53.10;;;;;;5116873;27;20189;-76
2021/03/23 07:25:08;;;;;;;9.45;7.15;;;11.60;49.80;;;;;;5126616;27;20245;-75
2021/03/23 07:27:34;;;;;;;14.48;8.07;;;12.70;47.00;;;;;;5128966;27;20212;-75
2021/03/23 07:30:25;;;;;;;11.02;8.15;;;14.20;43.60;;;;;;5130081;27;20187;-76
2021/03/23 07:32:57;;;;;;;13.88;8.45;;;16.00;39.30;;;;;;5117407;27;20271;-76
2021/03/23 07:35:30;;;;;;;14.02;8.10;;;17.70;38.30;;;;;;5113153;27;20191;-76
2021/03/23 07:38:04;;;;;;;9.97;6.67;;;19.20;31.70;;;;;;5116357;27;21013;-75
2021/03/23 07:40:38;;;;;;;11.23;8.57;;;20.50;30.10;;;;;;5112482;28;20427;-76
2021/03/23 07:43:21;;;;;;;13.67;8.00;;;21.80;28.10;;;;;;5115142;27;20449;-77
2021/03/23 07:45:56;;;;;;;11.80;7.87;;;23.10;27.60;;;;;;5127976;27;20468;-77
2021/03/23 07:48:30;;;;;;;13.83;8.30;;;24.40;26.60;;;;;;5114731;28;20833;-77
2021/03/23 07:51:07;;;;;;;9.70;7.17;;;25.60;23.60;;;;;;5116506;28;20442;-77
2021/03/23 07:53:40;;;;;;;13.50;7.80;;;26.70;22.10;;;;;;5112416;28;20848;-77
2021/03/23 07:56:21;;;;;;;11.20;8.30;;;27.50;21.30;;;;;;5117030;28;20490;-76
2021/03/23 07:59:02;;;;;;;16.40;8.40;;;28.30;20.00;;;;;;5114461;27;20472;-76
2021/03/23 08:01:49;;;;;;;9.67;7.40;;;28.90;20.10;;;;;;5119128;28;20448;-77
2021/03/23 08:04:23;;;;;;;12.73;7.63;;;30.00;18.30;;;;;;5128829;28;20448;-77
2021/03/23 08:06:59;;;;;;;15.27;9.47;;;30.50;17.30;;;;;;5129692;28;21222;-77
2021/03/23 08:09:56;;;;;;;11.00;8.40;;;30.90;17.30;;;;;;5113906;28;20445;-77
2021/03/23 08:12:45;;;;;;;8.10;7.00;;;31.40;16.50;;;;;;5115826;28;20447;-76
2021/03/23 08:15:32;;;;;;;12.97;8.70;;;32.20;15.60;;;;;;5124792;28;20437;-76
2021/03/23 08:18:23;;;;;;;9.33;7.77;;;32.60;15.50;;;;;;5132379;27;20484;-76
2021/03/23 08:21:10;;;;;;;10.23;7.50;;;33.00;14.50;;;;;;5124238;28;20499;-75
2021/03/23 08:23:53;;;;;;;7.83;7.03;;;32.50;13.90;;;;;;5132868;27;20429;-76
2021/03/23 08:26:33;;;;;;;11.47;7.30;;;32.10;14.50;;;;;;5132526;27;20441;-76
2021/03/23 08:29:06;;;;;;;11.87;8.07;;;32.10;15.10;;;;;;5133380;27;20433;-76
2021/03/23 08:31:51;;;;;;;10.07;7.50;;;33.30;15.20;;;;;;5132951;27;20481;-77
2021/03/23 08:34:47;;;;;;;9.87;7.50;;;34.60;13.50;;;;;;5131242;27;20432;-77
2021/03/23 08:37:43;;;;;;;8.20;7.30;;;35.60;12.00;;;;;;5132609;27;21044;-77
2021/03/23 08:40:21;;;;;;;8.77;7.83;;;36.40;11.50;;;;;;5132974;27;20448;-77
2021/03/23 08:42:48;;;;;;;11.73;7.00;;;36.70;10.60;;;;;;5132998;27;20456;-78
2021/03/23 08:45:20;;;;;;;10.60;8.50;;;36.70;10.60;;;;;;5132547;27;20468;-78
2021/03/23 08:47:50;;;;;;;10.93;7.17;;;36.70;11.10;;;;;;5130702;28;20433;-78
2021/03/23 08:50:26;;;;;;;10.00;6.67;;;37.00;11.70;;;;;;5133184;27;20888;-78
2021/03/23 08:52:55;;;;;;;16.13;6.77;;;37.30;10.50;;;;;;5133078;27;20942;-78
2021/03/23 08:55:47;;;;;;;9.97;7.97;;;37.10;9.90;;;;;;5136479;27;20438;-78
2021/03/23 08:58:18;;;;;;;9.50;7.10;;;36.20;10.10;;;;;;5136156;27;20440;-78
2021/03/23 09:00:54;;;;;;;8.33;7.27;;;35.70;10.50;;;;;;5136707;27;20560;-78
2021/03/23 09:03:42;;;;;;;10.03;6.87;;;35.00;10.00;;;;;;5136334;27;20437;-78
2021/03/23 09:06:13;;;;;;;8.23;6.67;;;35.20;9.90;;;;;;5136639;27;20467;-77
2021/03/23 09:08:52;;;;;;;7.77;5.83;;;34.10;10.40;;;;;;5136037;27;20484;-77
2021/03/23 09:12:01;;;;;;;10.97;7.20;;;32.60;11.40;;;;;;5136382;27;20484;-77
2021/03/23 09:14:32;;;;;;;9.47;6.90;;;30.90;11.70;;;;;;5115912;27;21054;-77
2021/03/23 09:17:27;;;;;;;11.70;7.67;;;30.00;12.90;;;;;;5133489;27;20811;-77
2021/03/23 09:19:56;;;;;;;9.40;6.80;;;29.30;12.80;;;;;;5136342;27;20854;-77
2021/03/23 09:22:44;;;;;;;6.93;5.20;;;28.70;12.60;;;;;;5115928;28;20428;-76
2021/03/23 09:25:47;;;;;;;12.43;6.80;;;28.30;13.20;;;;;;5134518;27;20509;-76
2021/03/23 09:28:45;;;;;;;8.70;5.57;;;28.60;13.30;;;;;;5135756;27;20643;-76
2021/03/23 09:31:17;;;;;;;7.60;6.40;;;29.30;13.70;;;;;;5136046;27;20919;-77
2021/03/23 09:33:49;;;;;;;8.20;6.13;;;30.80;13.10;;;;;;5135428;27;20838;-77
2021/03/23 09:36:31;;;;;;;7.17;6.07;;;31.50;11.70;;;;;;5135427;27;20487;-77
2021/03/23 09:39:42;;;;;;;9.47;6.37;;;31.90;12.30;;;;;;5135801;27;20444;-77
2021/03/23 09:42:35;;;;;;;8.27;5.97;;;31.60;11.10;;;;;;5135636;27;20425;-77
2021/03/23 09:45:36;;;;;;;8.17;5.70;;;30.60;12.10;;;;;;5134997;27;20548;-77
2021/03/23 09:48:20;;;;;;;6.50;5.70;;;30.30;11.20;;;;;;5135760;27;20429;-78
2021/03/23 09:51:01;;;;;;;8.03;5.60;;;29.60;11.10;;;;;;5134831;27;20520;-77
2021/03/23 09:53:36;;;;;;;8.90;5.77;;;27.80;12.10;;;;;;5135700;27;20516;-77
2021/03/23 09:56:06;;;;;;;8.90;5.90;;;26.20;12.60;;;;;;5134943;27;20528;-76
2021/03/23 09:58:33;;;;;;;6.90;4.73;;;24.60;13.50;;;;;;5123973;27;20486;-76
2021/03/23 10:01:19;;;;;;;6.47;4.97;;;23.20;14.40;;;;;;5135067;27;20438;-76
2021/03/23 10:03:48;;;;;;;9.60;5.93;;;22.50;15.60;;;;;;5135143;27;20524;-76
2021/03/23 10:06:18;;;;;;;6.70;5.43;;;22.40;16.20;;;;;;5135279;27;20453;-76
2021/03/23 10:08:57;;;;;;;10.47;4.70;;;21.60;16.10;;;;;;5134712;27;20524;-75
2021/03/23 10:11:28;;;;;;;13.63;5.40;;;20.60;16.60;;;;;;5135382;27;20455;-77
2021/03/23 10:13:57;;;;;;;7.10;4.80;;;21.60;21.10;;;;;;5134818;27;20449;-76
2021/03/23 10:16:29;;;;;;;9.03;5.37;;;25.70;17.80;;;;;;5134450;27;20472;-76
2021/03/23 10:19:00;;;;;;;7.97;5.30;;;30.10;15.80;;;;;;5135127;27;20437;-77
2021/03/23 10:21:30;;;;;;;8.40;6.00;;;33.10;13.30;;;;;;5134567;27;20436;-77
2021/03/23 10:24:00;;;;;;;6.60;5.87;;;35.70;11.70;;;;;;5134997;27;20422;-77
2021/03/23 10:26:35;;;;;;;5.80;4.97;;;37.70;9.50;;;;;;5134824;27;20493;-78
2021/03/23 10:29:13;;;;;;;6.10;4.70;;;39.00;8.90;;;;;;5134987;27;20436;-78
2021/03/23 10:31:44;;;;;;;7.00;6.30;;;40.70;8.10;;;;;;5134293;27;20438;-78
2021/03/23 10:34:12;;;;;;;6.23;4.60;;;41.70;7.10;;;;;;5134705;27;20558;-78
2021/03/23 10:36:45;;;;;;;5.13;3.83;;;41.90;6.20;;;;;;5134421;27;20959;-78
2021/03/23 10:39:37;;;;;;;6.57;3.93;;;41.20;6.10;;;;;;5134758;27;20445;-79
2021/03/23 10:42:18;;;;;;;6.20;4.40;;;39.90;5.40;;;;;;5134475;27;20441;-78
2021/03/23 10:44:47;;;;;;;5.87;4.43;;;36.20;6.20;;;;;;5134671;27;20445;-78
2021/03/23 10:47:31;;;;;;;5.63;4.10;;;33.10;7.40;;;;;;5133739;27;20441;-76
2021/03/23 10:50:15;;;;;;;6.00;4.63;;;30.40;9.00;;;;;;5134809;27;21438;-77
2021/03/23 10:52:42;;;;;;;8.40;4.80;;;28.00;10.60;;;;;;5117480;27;20515;-76
2021/03/23 10:55:22;;;;;;;6.07;3.70;;;26.10;11.60;;;;;;5133702;27;20438;-76
2021/03/23 10:57:49;;;;;;;7.83;3.60;;;24.60;13.10;;;;;;5134051;27;20477;-77
2021/03/23 11:00:25;;;;;;;9.00;4.17;;;23.60;13.50;;;;;;5134081;27;20437;-75
2021/03/23 11:02:52;;;;;;;5.83;3.30;;;22.80;14.20;;;;;;5133344;27;20526;-76
2021/03/23 11:05:21;;;;;;;6.90;3.90;;;22.30;15.50;;;;;;5134289;27;20835;-76
2021/03/23 11:08:02;;;;;;;7.80;3.53;;;21.80;15.50;;;;;;5133840;27;20474;-76
2021/03/23 11:10:33;;;;;;;9.10;4.20;;;21.20;15.60;;;;;;5132221;27;20520;-76
2021/03/23 11:13:01;;;;;;;9.17;4.20;;;20.60;16.30;;;;;;5133734;27;20508;-75
2021/03/23 11:15:36;;;;;;;8.20;4.80;;;22.10;18.70;;;;;;5133504;27;20911;-76
2021/03/23 11:18:05;;;;;;;6.70;3.60;;;22.40;15.30;;;;;;5133550;27;21008;-76
2021/03/23 11:20:37;;;;;;;5.97;3.70;;;21.50;15.00;;;;;;5133530;27;20935;-75
2021/03/23 11:23:20;;;;;;;7.63;4.50;;;24.20;19.10;;;;;;5134225;27;20524;-76
2021/03/23 11:25:49;;;;;;;6.60;4.40;;;29.30;14.60;;;;;;5133942;27;20444;-77
2021/03/23 11:28:20;;;;;;;7.47;4.43;;;33.40;11.40;;;;;;5134154;27;20442;-76
2021/03/23 11:30:53;;;;;;;6.27;3.60;;;34.40;11.50;;;;;;5133916;27;20814;-77
2021/03/23 11:33:25;;;;;;;6.80;4.80;;;36.60;8.90;;;;;;5133245;27;21004;-78
2021/03/23 11:35:52;;;;;;;6.03;4.40;;;39.00;9.10;;;;;;5134005;27;20469;-78
2021/03/23 11:38:29;;;;;;;6.17;4.87;;;40.60;6.80;;;;;;5132785;27;20465;-78
2021/03/23 11:40:57;;;;;;;4.73;4.23;;;41.70;6.30;;;;;;5133665;27;20440;-79
2021/03/23 11:43:30;;;;;;;4.87;4.40;;;42.90;6.50;;;;;;5133126;27;20942;-79
2021/03/23 11:46:07;;;;;;;5.60;4.57;;;43.80;4.90;;;;;;5132469;27;20473;-79
2021/03/23 11:48:46;;;;;;;5.00;4.50;;;43.50;6.10;;;;;;5133742;27;20460;-79
2021/03/23 11:51:15;;;;;;;5.53;4.13;;;43.10;5.70;;;;;;5133273;27;20430;-79
2021/03/23 11:53:43;;;;;;;5.03;4.00;;;43.90;6.70;;;;;;5132948;27;20465;-80
2021/03/23 11:56:11;;;;;;;10.00;5.17;;;45.00;6.10;;;;;;5133725;27;20429;-81
2021/03/23 11:58:40;;;;;;;5.83;4.93;;;45.10;5.20;;;;;;5133345;27;20440;-79
2021/03/23 12:01:10;;;;;;;6.17;4.87;;;42.10;4.40;;;;;;5133436;27;20466;-78
2021/03/23 12:03:37;;;;;;;5.70;3.97;;;39.00;5.50;;;;;;5132689;27;20516;-78
2021/03/23 12:06:07;;;;;;;8.23;5.50;;;36.30;6.30;;;;;;5130721;27;20429;-78
2021/03/23 12:08:43;;;;;;;6.43;4.67;;;33.70;6.80;;;;;;5133288;28;20433;-78
2021/03/23 12:11:22;;;;;;;6.40;4.87;;;31.50;8.10;;;;;;5133705;27;20490;-78
2021/03/23 12:14:01;;;;;;;5.10;3.87;;;29.40;9.10;;;;;;5133231;27;20440;-78
2021/03/23 12:16:33;;;;;;;6.07;4.40;;;27.40;10.40;;;;;;5133324;27;20819;-78
2021/03/23 12:19:08;;;;;;;6.27;4.43;;;26.40;11.70;;;;;;5133600;27;20435;-77
2021/03/23 12:21:38;;;;;;;5.90;3.83;;;25.70;13.10;;;;;;5132797;27;20436;-77
2021/03/23 12:24:08;;;;;;;6.97;4.60;;;25.20;13.80;;;;;;5132465;27;20429;-77
2021/03/23 12:26:35;;;;;;;5.83;3.70;;;24.50;13.80;;;;;;5131640;27;20497;-77
2021/03/23 12:29:03;;;;;;;6.03;4.27;;;24.50;13.10;;;;;;5136419;27;20781;-77
2021/03/23 12:31:32;;;;;;;6.90;3.83;;;23.50;13.70;;;;;;5136272;27;20429;-77
2021/03/23 12:34:02;;;;;;;6.83;3.73;;;23.90;15.90;;;;;;5136238;27;20463;-77
2021/03/23 12:36:33;;;;;;;5.90;3.97;;;26.90;14.70;;;;;;5137254;27;20469;-78
2021/03/23 12:39:02;;;;;;;6.13;4.53;;;30.00;13.10;;;;;;5137639;27;20440;-78
2021/03/23 12:41:36;;;;;;;5.60;4.13;;;33.30;11.70;;;;;;5136592;27;20933;-78
2021/03/23 12:44:06;;;;;;;5.50;3.50;;;35.80;10.60;;;;;;5137182;27;20424;-78
2021/03/23 12:46:35;;;;;;;3.60;2.97;;;37.70;8.50;;;;;;5136776;27;20468;-79
2021/03/23 12:49:02;;;;;;;5.67;3.80;;;37.60;7.60;;;;;;5137329;27;20439;-78
2021/03/23 12:51:37;;;;;;;7.17;5.10;;;37.90;6.90;;;;;;5136725;27;20421;-79
2021/03/23 12:54:04;;;;;;;8.93;4.70;;;38.60;6.90;;;;;;5136558;27;20461;-78
2021/03/23 12:56:34;;;;;;;5.33;3.30;;;39.50;7.00;;;;;;5136904;27;20471;-79
2021/03/23 12:59:10;;;;;;;11.87;5.43;;;39.50;5.10;;;;;;5136967;27;20478;-80
2021/03/23 13:01:37;;;;;;;5.13;4.07;;;38.70;5.90;;;;;;5116066;28;20437;-78
2021/03/23 13:04:04;;;;;;;4.90;3.87;;;37.30;5.10;;;;;;5130877;27;20429;-79
2021/03/23 13:06:34;;;;;;;5.07;3.07;;;34.80;5.80;;;;;;5116169;28;20920;-77
2021/03/23 13:09:07;;;;;;;3.50;2.47;;;33.00;6.20;;;;;;5130196;27;20441;-78
2021/03/23 13:11:37;;;;;;;6.37;2.90;;;31.30;6.50;;;;;;5135969;27;20436;-79
2021/03/23 13:14:20;;;;;;;6.40;2.60;;;29.70;7.70;;;;;;5135650;27;20504;-77
2021/03/23 13:16:49;;;;;;;4.60;2.93;;;28.40;8.10;;;;;;5136447;27;20496;-78
2021/03/23 13:19:16;;;;;;;4.10;2.77;;;26.90;8.20;;;;;;5135921;27;20436;-77
2021/03/23 13:21:49;;;;;;;6.63;3.00;;;25.50;9.60;;;;;;5136342;27;20512;-78
2021/03/23 13:24:52;;;;;;;5.07;3.07;;;24.50;10.70;;;;;;5135929;27;20445;-78
2021/03/23 13:27:25;;;;;;;4.53;3.00;;;23.80;10.80;;;;;;5135786;27;20445;-78
2021/03/23 13:29:55;;;;;;;5.17;2.80;;;22.90;11.60;;;;;;5135819;27;20433;-78